sensor_id;sensor_type;location;lat;lon;timestamp;temperature;humidity
4429;DHT22;2227;47.810;8.810;2023-06-26T03:48:01;16.60;99.90
4429;DHT22;2227;47.810;8.810;2023-06-26T03:50:28;16.60;99.90
4429;DHT22;2227;47.810;8.810;2023-06-26T03:52:55;16.60;99.90
4429;DHT22;2227;47.810;8.810;2023-06-26T03:55:21;16.60;99.90
4429;DHT22;2227;47.810;8.810;2023-06-26T03:57:50;16.60;99.90
4429;DHT22;2227;47.810;8.810;2023-06-26T04:00:17;16.60;99.90
4429;DHT22;2227;47.810;8.810;2023-06-26T04:02:44;16.60;99.90
4429;DHT22;2227;47.810;8.810;2023-06-26T04:05:10;16.60;99.90
4429;DHT22;2227;47.810;8.810;2023-06-26T04:07:41;16.60;99.90
4429;DHT22;2227;47.810;8.810;2023-06-26T04:10:08;16.60;99.90
4429;DHT22;2227;47.810;8.810;2023-06-26T04:12:35;16.60;99.90
4429;DHT22;2227;47.810;8.810;2023-06-26T04:15:01;16.50;99.90
4429;DHT22;2227;47.810;8.810;2023-06-26T04:17:29;16.50;99.90
4429;DHT22;2227;47.810;8.810;2023-06-26T04:19:56;16.60;99.90
4429;DHT22;2227;47.810;8.810;2023-06-26T04:22:22;16.60;99.90
4429;DHT22;2227;47.810;8.810;2023-06-26T04:24:49;16.60;99.90
4429;DHT22;2227;47.810;8.810;2023-06-26T04:27:16;16.70;99.90
4429;DHT22;2227;47.810;8.810;2023-06-26T04:29:43;16.70;99.90
4429;DHT22;2227;47.810;8.810;2023-06-26T04:32:10;16.70;99.90
4429;DHT22;2227;47.810;8.810;2023-06-26T04:34:37;16.90;99.90
4429;DHT22;2227;47.810;8.810;2023-06-26T04:37:07;16.90;99.90
4429;DHT22;2227;47.810;8.810;2023-06-26T04:39:36;16.90;99.90
4429;DHT22;2227;47.810;8.810;2023-06-26T04:42:04;16.90;99.90
4429;DHT22;2227;47.810;8.810;2023-06-26T04:44:32;17.00;99.90
4429;DHT22;2227;47.810;8.810;2023-06-26T04:46:59;17.00;99.90
4429;DHT22;2227;47.810;8.810;2023-06-26T04:49:25;17.10;99.90
4429;DHT22;2227;47.810;8.810;2023-06-26T04:51:55;17.10;99.90
4429;DHT22;2227;47.810;8.810;2023-06-26T04:54:22;17.10;99.90
4429;DHT22;2227;47.810;8.810;2023-06-26T04:56:49;17.20;99.90
4429;DHT22;2227;47.810;8.810;2023-06-26T04:59:16;17.20;99.90
4429;DHT22;2227;47.810;8.810;2023-06-26T05:01:42;17.30;99.90
4429;DHT22;2227;47.810;8.810;2023-06-26T05:04:15;17.30;99.90
4429;DHT22;2227;47.810;8.810;2023-06-26T05:06:42;17.40;99.90
4429;DHT22;2227;47.810;8.810;2023-06-26T05:09:09;17.40;99.90
4429;DHT22;2227;47.810;8.810;2023-06-26T05:11:37;17.40;99.90
4429;DHT22;2227;47.810;8.810;2023-06-26T05:14:04;17.50;99.90
4429;DHT22;2227;47.810;8.810;2023-06-26T05:16:33;17.60;99.90
4429;DHT22;2227;47.810;8.810;2023-06-26T05:19:03;17.70;99.90
4429;DHT22;2227;47.810;8.810;2023-06-26T05:21:30;17.70;99.90
4429;DHT22;2227;47.810;8.810;2023-06-26T05:23:57;17.70;99.90
4429;DHT22;2227;47.810;8.810;2023-06-26T05:26:25;17.80;99.90
4429;DHT22;2227;47.810;8.810;2023-06-26T05:28:53;17.90;99.90
4429;DHT22;2227;47.810;8.810;2023-06-26T05:31:20;18.10;99.90
4429;DHT22;2227;47.810;8.810;2023-06-26T05:33:48;18.10;99.90
4429;DHT22;2227;47.810;8.810;2023-06-26T05:36:16;18.20;99.90
4429;DHT22;2227;47.810;8.810;2023-06-26T05:38:45;18.30;99.90
4429;DHT22;2227;47.810;8.810;2023-06-26T05:41:12;18.40;99.90
4429;DHT22;2227;47.810;8.810;2023-06-26T05:43:39;18.60;99.90
4429;DHT22;2227;47.810;8.810;2023-06-26T05:46:06;18.60;99.90
4429;DHT22;2227;47.810;8.810;2023-06-26T05:48:33;18.70;99.90
4429;DHT22;2227;47.810;8.810;2023-06-26T05:51:00;18.80;99.90
4429;DHT22;2227;47.810;8.810;2023-06-26T05:53:27;18.90;99.90
4429;DHT22;2227;47.810;8.810;2023-06-26T05:55:54;19.00;99.90
4429;DHT22;2227;47.810;8.810;2023-06-26T05:58:24;19.10;99.90
4429;DHT22;2227;47.810;8.810;2023-06-26T06:00:52;19.20;99.90
4429;DHT22;2227;47.810;8.810;2023-06-26T06:03:19;19.30;99.90
4429;DHT22;2227;47.810;8.810;2023-06-26T06:05:46;19.40;99.90
4429;DHT22;2227;47.810;8.810;2023-06-26T06:08:13;19.50;99.90
4429;DHT22;2227;47.810;8.810;2023-06-26T06:10:39;19.60;99.90
4429;DHT22;2227;47.810;8.810;2023-06-26T06:13:06;19.70;99.90
4429;DHT22;2227;47.810;8.810;2023-06-26T06:15:33;19.80;99.90
4429;DHT22;2227;47.810;8.810;2023-06-26T06:18:00;19.90;99.90
4429;DHT22;2227;47.810;8.810;2023-06-26T06:20:27;20.00;99.90
4429;DHT22;2227;47.810;8.810;2023-06-26T06:22:54;20.20;99.90
4429;DHT22;2227;47.810;8.810;2023-06-26T06:25:20;20.20;99.90
4429;DHT22;2227;47.810;8.810;2023-06-26T06:27:47;20.30;99.90
4429;DHT22;2227;47.810;8.810;2023-06-26T06:30:14;20.30;99.90
4429;DHT22;2227;47.810;8.810;2023-06-26T06:32:41;20.40;99.90
4429;DHT22;2227;47.810;8.810;2023-06-26T06:35:08;20.60;99.90
4429;DHT22;2227;47.810;8.810;2023-06-26T06:37:38;20.60;99.90
4429;DHT22;2227;47.810;8.810;2023-06-26T06:40:05;20.80;99.90
4429;DHT22;2227;47.810;8.810;2023-06-26T06:42:33;20.90;99.90
4429;DHT22;2227;47.810;8.810;2023-06-26T06:45:02;21.00;99.90
4429;DHT22;2227;47.810;8.810;2023-06-26T06:47:29;21.10;99.90
4429;DHT22;2227;47.810;8.810;2023-06-26T06:49:56;21.30;99.90
4429;DHT22;2227;47.810;8.810;2023-06-26T06:52:23;21.40;99.90
4429;DHT22;2227;47.810;8.810;2023-06-26T06:54:53;21.50;99.90
4429;DHT22;2227;47.810;8.810;2023-06-26T06:57:21;21.60;99.90
4429;DHT22;2227;47.810;8.810;2023-06-26T06:59:48;21.70;99.90
4429;DHT22;2227;47.810;8.810;2023-06-26T07:02:17;21.80;99.90
4429;DHT22;2227;47.810;8.810;2023-06-26T07:04:44;21.90;99.90
4429;DHT22;2227;47.810;8.810;2023-06-26T07:07:11;22.00;99.90
4429;DHT22;2227;47.810;8.810;2023-06-26T07:09:39;22.20;99.90
4429;DHT22;2227;47.810;8.810;2023-06-26T07:12:06;22.30;99.90
4429;DHT22;2227;47.810;8.810;2023-06-26T07:14:33;22.40;99.90
4429;DHT22;2227;47.810;8.810;2023-06-26T07:17:00;22.60;99.90
4429;DHT22;2227;47.810;8.810;2023-06-26T07:19:26;22.70;99.90
4429;DHT22;2227;47.810;8.810;2023-06-26T07:21:53;22.70;99.90
4429;DHT22;2227;47.810;8.810;2023-06-26T07:24:20;22.80;99.90
4429;DHT22;2227;47.810;8.810;2023-06-26T07:26:47;22.90;99.90
4429;DHT22;2227;47.810;8.810;2023-06-26T07:29:16;23.10;99.90
4429;DHT22;2227;47.810;8.810;2023-06-26T07:31:43;23.20;99.90
4429;DHT22;2227;47.810;8.810;2023-06-26T07:34:12;23.30;99.90
4429;DHT22;2227;47.810;8.810;2023-06-26T07:36:39;23.50;99.90
4429;DHT22;2227;47.810;8.810;2023-06-26T07:39:05;23.60;99.90
4429;DHT22;2227;47.810;8.810;2023-06-26T07:41:32;23.70;99.90
4429;DHT22;2227;47.810;8.810;2023-06-26T07:43:59;23.90;99.90
4429;DHT22;2227;47.810;8.810;2023-06-26T07:46:26;24.00;99.90
4429;DHT22;2227;47.810;8.810;2023-06-26T07:48:53;24.20;99.90
4429;DHT22;2227;47.810;8.810;2023-06-26T07:51:20;24.30;99.90
4429;DHT22;2227;47.810;8.810;2023-06-26T07:53:47;24.40;99.90
4429;DHT22;2227;47.810;8.810;2023-06-26T07:56:14;24.50;99.90
4429;DHT22;2227;47.810;8.810;2023-06-26T07:58:41;24.70;99.90
4429;DHT22;2227;47.810;8.810;2023-06-26T08:01:07;24.70;99.90
4429;DHT22;2227;47.810;8.810;2023-06-26T08:03:34;24.70;99.90
4429;DHT22;2227;47.810;8.810;2023-06-26T08:06:02;24.90;99.90
4429;DHT22;2227;47.810;8.810;2023-06-26T08:08:29;25.00;99.90
4429;DHT22;2227;47.810;8.810;2023-06-26T08:10:56;25.00;99.90
4429;DHT22;2227;47.810;8.810;2023-06-26T08:13:24;25.00;99.90
4429;DHT22;2227;47.810;8.810;2023-06-26T08:15:51;25.10;99.90
4429;DHT22;2227;47.810;8.810;2023-06-26T08:18:18;25.10;99.90
4429;DHT22;2227;47.810;8.810;2023-06-26T08:20:45;25.20;99.90
4429;DHT22;2227;47.810;8.810;2023-06-26T08:23:12;25.20;99.90
4429;DHT22;2227;47.810;8.810;2023-06-26T08:25:39;25.30;99.90
4429;DHT22;2227;47.810;8.810;2023-06-26T08:28:06;25.30;99.90
4429;DHT22;2227;47.810;8.810;2023-06-26T08:30:33;25.40;99.90
4429;DHT22;2227;47.810;8.810;2023-06-26T08:32:59;25.50;99.90
4429;DHT22;2227;47.810;8.810;2023-06-26T08:35:26;25.60;99.90
4429;DHT22;2227;47.810;8.810;2023-06-26T08:37:53;25.70;99.90
4429;DHT22;2227;47.810;8.810;2023-06-26T08:40:21;25.90;99.90
4429;DHT22;2227;47.810;8.810;2023-06-26T08:42:48;25.90;99.90
4429;DHT22;2227;47.810;8.810;2023-06-26T08:45:19;25.90;99.90
4429;DHT22;2227;47.810;8.810;2023-06-26T08:47:48;26.10;99.90
4429;DHT22;2227;47.810;8.810;2023-06-26T08:50:20;26.30;99.90
4429;DHT22;2227;47.810;8.810;2023-06-26T08:53:09;26.40;99.90
4429;DHT22;2227;47.810;8.810;2023-06-26T08:55:41;26.50;99.90
4429;DHT22;2227;47.810;8.810;2023-06-26T08:58:10;26.70;99.90
4429;DHT22;2227;47.810;8.810;2023-06-26T09:00:38;26.90;99.90
4429;DHT22;2227;47.810;8.810;2023-06-26T09:03:06;27.00;99.90
4429;DHT22;2227;47.810;8.810;2023-06-26T09:05:34;27.10;99.90
4429;DHT22;2227;47.810;8.810;2023-06-26T09:08:02;27.10;99.90
4429;DHT22;2227;47.810;8.810;2023-06-26T09:10:31;27.10;99.90
4429;DHT22;2227;47.810;8.810;2023-06-26T09:12:57;27.10;99.90
4429;DHT22;2227;47.810;8.810;2023-06-26T09:15:25;27.20;99.90
4429;DHT22;2227;47.810;8.810;2023-06-26T09:17:56;27.20;99.80
4429;DHT22;2227;47.810;8.810;2023-06-26T09:20:23;27.20;99.70
4429;DHT22;2227;47.810;8.810;2023-06-26T09:22:51;27.20;99.60
4429;DHT22;2227;47.810;8.810;2023-06-26T09:25:18;27.30;99.80
4429;DHT22;2227;47.810;8.810;2023-06-26T09:27:48;27.60;99.20
4429;DHT22;2227;47.810;8.810;2023-06-26T09:30:19;27.70;99.40
4429;DHT22;2227;47.810;8.810;2023-06-26T09:32:46;27.90;98.70
4429;DHT22;2227;47.810;8.810;2023-06-26T09:35:13;27.90;98.30
4429;DHT22;2227;47.810;8.810;2023-06-26T09:37:41;28.00;97.80
4429;DHT22;2227;47.810;8.810;2023-06-26T09:40:08;28.10;97.20
4429;DHT22;2227;47.810;8.810;2023-06-26T09:42:35;28.00;97.40
4429;DHT22;2227;47.810;8.810;2023-06-26T09:45:02;28.00;97.50
4429;DHT22;2227;47.810;8.810;2023-06-26T09:47:34;28.00;98.10
4429;DHT22;2227;47.810;8.810;2023-06-26T09:50:04;28.20;96.70
4429;DHT22;2227;47.810;8.810;2023-06-26T09:52:32;28.20;96.30
4429;DHT22;2227;47.810;8.810;2023-06-26T09:55:09;28.30;95.60
4429;DHT22;2227;47.810;8.810;2023-06-26T10:00:03;28.50;96.30
4429;DHT22;2227;47.810;8.810;2023-06-26T10:02:31;28.60;95.10
4429;DHT22;2227;47.810;8.810;2023-06-26T10:04:58;28.60;95.10
4429;DHT22;2227;47.810;8.810;2023-06-26T10:07:25;28.60;94.60
4429;DHT22;2227;47.810;8.810;2023-06-26T10:09:54;28.60;94.70
4429;DHT22;2227;47.810;8.810;2023-06-26T10:12:29;28.80;94.20
4429;DHT22;2227;47.810;8.810;2023-06-26T10:14:57;29.00;94.40
4429;DHT22;2227;47.810;8.810;2023-06-26T10:17:34;29.20;93.30
4429;DHT22;2227;47.810;8.810;2023-06-26T10:20:02;29.40;92.60
4429;DHT22;2227;47.810;8.810;2023-06-26T10:22:38;29.30;92.30
4429;DHT22;2227;47.810;8.810;2023-06-26T10:25:06;29.30;93.00
4429;DHT22;2227;47.810;8.810;2023-06-26T10:27:38;29.50;92.20
4429;DHT22;2227;47.810;8.810;2023-06-26T10:30:13;29.60;91.90
4429;DHT22;2227;47.810;8.810;2023-06-26T10:32:41;29.70;91.10
4429;DHT22;2227;47.810;8.810;2023-06-26T10:35:08;29.60;91.10
4429;DHT22;2227;47.810;8.810;2023-06-26T10:37:47;29.60;90.80
4429;DHT22;2227;47.810;8.810;2023-06-26T10:40:21;29.70;90.00
4429;DHT22;2227;47.810;8.810;2023-06-26T10:42:48;29.80;90.30
4429;DHT22;2227;47.810;8.810;2023-06-26T10:45:21;30.00;89.60
4429;DHT22;2227;47.810;8.810;2023-06-26T10:47:51;30.10;87.70
4429;DHT22;2227;47.810;8.810;2023-06-26T10:55:42;29.90;85.40
4429;DHT22;2227;47.810;8.810;2023-06-26T11:01:25;30.00;84.80
4429;DHT22;2227;47.810;8.810;2023-06-26T11:04:06;30.20;85.60
4429;DHT22;2227;47.810;8.810;2023-06-26T11:06:36;30.40;83.10
4429;DHT22;2227;47.810;8.810;2023-06-26T11:11:55;30.60;84.00
4429;DHT22;2227;47.810;8.810;2023-06-26T11:14:26;30.60;82.10
4429;DHT22;2227;47.810;8.810;2023-06-26T11:16:56;30.70;81.50
4429;DHT22;2227;47.810;8.810;2023-06-26T11:19:29;30.90;80.40
4429;DHT22;2227;47.810;8.810;2023-06-26T11:22:03;30.90;79.30
4429;DHT22;2227;47.810;8.810;2023-06-26T11:24:31;31.10;77.60
4429;DHT22;2227;47.810;8.810;2023-06-26T11:27:00;30.90;78.10
4429;DHT22;2227;47.810;8.810;2023-06-26T11:29:29;30.70;77.90
4429;DHT22;2227;47.810;8.810;2023-06-26T11:32:00;30.80;79.20
4429;DHT22;2227;47.810;8.810;2023-06-26T11:34:31;30.80;78.00
4429;DHT22;2227;47.810;8.810;2023-06-26T11:36:59;30.90;78.00
4429;DHT22;2227;47.810;8.810;2023-06-26T11:39:27;30.90;77.30
4429;DHT22;2227;47.810;8.810;2023-06-26T11:41:54;30.80;76.90
4429;DHT22;2227;47.810;8.810;2023-06-26T11:44:21;31.00;77.50
4429;DHT22;2227;47.810;8.810;2023-06-26T11:46:51;31.00;77.20
4429;DHT22;2227;47.810;8.810;2023-06-26T11:49:18;31.10;78.80
4429;DHT22;2227;47.810;8.810;2023-06-26T11:51:47;31.00;78.10
4429;DHT22;2227;47.810;8.810;2023-06-26T11:54:14;30.90;78.60
4429;DHT22;2227;47.810;8.810;2023-06-26T11:56:41;31.10;79.70
4429;DHT22;2227;47.810;8.810;2023-06-26T11:59:12;31.10;81.10
4429;DHT22;2227;47.810;8.810;2023-06-26T12:01:41;30.60;83.00
4429;DHT22;2227;47.810;8.810;2023-06-26T12:04:10;30.30;85.00
4429;DHT22;2227;47.810;8.810;2023-06-26T12:06:39;30.10;85.30
4429;DHT22;2227;47.810;8.810;2023-06-26T12:09:09;30.10;86.40
4429;DHT22;2227;47.810;8.810;2023-06-26T12:11:39;30.00;86.30
4429;DHT22;2227;47.810;8.810;2023-06-26T12:14:08;29.80;87.10
4429;DHT22;2227;47.810;8.810;2023-06-26T12:16:36;29.80;87.80
4429;DHT22;2227;47.810;8.810;2023-06-26T12:19:04;29.60;87.60
4429;DHT22;2227;47.810;8.810;2023-06-26T12:21:45;29.50;88.10
4429;DHT22;2227;47.810;8.810;2023-06-26T12:24:17;29.40;88.90
4429;DHT22;2227;47.810;8.810;2023-06-26T12:26:45;29.50;89.10
4429;DHT22;2227;47.810;8.810;2023-06-26T12:29:15;29.60;87.90
4429;DHT22;2227;47.810;8.810;2023-06-26T12:31:51;29.80;87.30
4429;DHT22;2227;47.810;8.810;2023-06-26T12:34:30;30.20;86.70
4429;DHT22;2227;47.810;8.810;2023-06-26T12:37:05;30.60;84.20
4429;DHT22;2227;47.810;8.810;2023-06-26T12:39:55;30.70;85.80
4429;DHT22;2227;47.810;8.810;2023-06-26T12:42:24;30.90;84.90
4429;DHT22;2227;47.810;8.810;2023-06-26T12:44:52;31.00;83.40
4429;DHT22;2227;47.810;8.810;2023-06-26T12:47:25;31.20;82.90
4429;DHT22;2227;47.810;8.810;2023-06-26T12:49:54;31.50;81.60
4429;DHT22;2227;47.810;8.810;2023-06-26T12:52:21;31.50;81.40
4429;DHT22;2227;47.810;8.810;2023-06-26T12:54:52;31.50;81.90
4429;DHT22;2227;47.810;8.810;2023-06-26T12:57:20;31.80;82.00
4429;DHT22;2227;47.810;8.810;2023-06-26T12:59:47;31.50;81.20
4429;DHT22;2227;47.810;8.810;2023-06-26T13:02:14;31.50;83.60
4429;DHT22;2227;47.810;8.810;2023-06-26T13:04:42;31.70;82.50
4429;DHT22;2227;47.810;8.810;2023-06-26T13:07:11;31.80;79.50
4429;DHT22;2227;47.810;8.810;2023-06-26T13:09:38;31.90;79.70
4429;DHT22;2227;47.810;8.810;2023-06-26T13:12:06;31.80;79.70
4429;DHT22;2227;47.810;8.810;2023-06-26T13:14:34;31.80;80.50
4429;DHT22;2227;47.810;8.810;2023-06-26T13:17:02;31.80;81.50
4429;DHT22;2227;47.810;8.810;2023-06-26T13:19:30;32.20;77.60
4429;DHT22;2227;47.810;8.810;2023-06-26T13:21:57;32.60;76.20
4429;DHT22;2227;47.810;8.810;2023-06-26T13:24:24;32.80;75.50
4429;DHT22;2227;47.810;8.810;2023-06-26T13:26:51;32.80;74.20
4429;DHT22;2227;47.810;8.810;2023-06-26T13:29:18;32.90;73.60
4429;DHT22;2227;47.810;8.810;2023-06-26T13:31:45;32.70;75.00
4429;DHT22;2227;47.810;8.810;2023-06-26T13:34:21;32.90;74.40
4429;DHT22;2227;47.810;8.810;2023-06-26T13:36:48;32.90;73.30
4429;DHT22;2227;47.810;8.810;2023-06-26T13:39:15;33.00;73.50
4429;DHT22;2227;47.810;8.810;2023-06-26T13:41:42;33.30;73.30
4429;DHT22;2227;47.810;8.810;2023-06-26T13:44:08;33.50;71.50
4429;DHT22;2227;47.810;8.810;2023-06-26T13:46:43;33.40;71.20
4429;DHT22;2227;47.810;8.810;2023-06-26T13:49:10;33.10;70.20
4429;DHT22;2227;47.810;8.810;2023-06-26T13:51:37;33.00;70.90
4429;DHT22;2227;47.810;8.810;2023-06-26T13:54:04;32.90;70.70
4429;DHT22;2227;47.810;8.810;2023-06-26T13:56:31;32.90;70.10
4429;DHT22;2227;47.810;8.810;2023-06-26T13:58:57;32.50;70.70
4429;DHT22;2227;47.810;8.810;2023-06-26T14:01:25;32.30;69.60
4429;DHT22;2227;47.810;8.810;2023-06-26T14:03:51;32.40;71.50
4429;DHT22;2227;47.810;8.810;2023-06-26T14:06:18;32.60;70.50
4429;DHT22;2227;47.810;8.810;2023-06-26T14:08:45;32.50;69.50
4429;DHT22;2227;47.810;8.810;2023-06-26T14:11:11;32.10;69.60
4429;DHT22;2227;47.810;8.810;2023-06-26T14:13:38;31.90;70.70
4429;DHT22;2227;47.810;8.810;2023-06-26T14:16:05;31.80;71.10
4429;DHT22;2227;47.810;8.810;2023-06-26T14:18:32;32.10;72.40
4429;DHT22;2227;47.810;8.810;2023-06-26T14:20:59;32.30;71.80
4429;DHT22;2227;47.810;8.810;2023-06-26T14:23:26;32.60;71.90
4429;DHT22;2227;47.810;8.810;2023-06-26T14:25:53;32.50;72.10
4429;DHT22;2227;47.810;8.810;2023-06-26T14:28:20;32.30;70.90
4429;DHT22;2227;47.810;8.810;2023-06-26T14:30:46;32.10;72.10
4429;DHT22;2227;47.810;8.810;2023-06-26T14:33:13;32.10;73.80
4429;DHT22;2227;47.810;8.810;2023-06-26T14:35:40;32.30;72.20
4429;DHT22;2227;47.810;8.810;2023-06-26T14:38:06;32.50;71.00
4429;DHT22;2227;47.810;8.810;2023-06-26T14:40:33;32.20;70.40
4429;DHT22;2227;47.810;8.810;2023-06-26T14:43:00;32.10;70.80
4429;DHT22;2227;47.810;8.810;2023-06-26T14:45:27;31.80;67.90
4429;DHT22;2227;47.810;8.810;2023-06-26T14:47:55;31.70;69.40
4429;DHT22;2227;47.810;8.810;2023-06-26T14:50:21;31.80;70.30
4429;DHT22;2227;47.810;8.810;2023-06-26T14:52:48;31.70;70.50
4429;DHT22;2227;47.810;8.810;2023-06-26T14:55:15;31.70;68.80
4429;DHT22;2227;47.810;8.810;2023-06-26T14:57:42;31.60;69.90
4429;DHT22;2227;47.810;8.810;2023-06-26T15:00:09;31.60;71.20
4429;DHT22;2227;47.810;8.810;2023-06-26T15:02:36;31.50;71.70
4429;DHT22;2227;47.810;8.810;2023-06-26T15:05:03;31.40;71.90
4429;DHT22;2227;47.810;8.810;2023-06-26T15:07:30;31.10;72.40
4429;DHT22;2227;47.810;8.810;2023-06-26T15:09:57;30.80;74.20
4429;DHT22;2227;47.810;8.810;2023-06-26T15:12:24;30.60;75.50
4429;DHT22;2227;47.810;8.810;2023-06-26T15:14:50;30.70;77.10
4429;DHT22;2227;47.810;8.810;2023-06-26T15:17:18;30.90;77.30
4429;DHT22;2227;47.810;8.810;2023-06-26T15:19:45;31.30;76.40
4429;DHT22;2227;47.810;8.810;2023-06-26T15:22:12;31.80;74.70
4429;DHT22;2227;47.810;8.810;2023-06-26T15:24:39;32.10;74.80
4429;DHT22;2227;47.810;8.810;2023-06-26T15:27:05;32.30;73.90
4429;DHT22;2227;47.810;8.810;2023-06-26T15:29:34;32.40;73.70
4429;DHT22;2227;47.810;8.810;2023-06-26T15:32:01;32.10;74.40
4429;DHT22;2227;47.810;8.810;2023-06-26T15:34:28;32.20;74.70
4429;DHT22;2227;47.810;8.810;2023-06-26T15:36:54;32.30;74.60
4429;DHT22;2227;47.810;8.810;2023-06-26T15:39:21;32.50;75.60
4429;DHT22;2227;47.810;8.810;2023-06-26T15:41:48;32.60;75.40
4429;DHT22;2227;47.810;8.810;2023-06-26T15:44:14;32.60;73.40
4429;DHT22;2227;47.810;8.810;2023-06-26T15:46:41;32.80;73.70
4429;DHT22;2227;47.810;8.810;2023-06-26T15:49:08;32.90;73.00
4429;DHT22;2227;47.810;8.810;2023-06-26T15:51:34;32.90;72.90
4429;DHT22;2227;47.810;8.810;2023-06-26T15:54:04;32.80;73.20
4429;DHT22;2227;47.810;8.810;2023-06-26T15:56:31;32.80;73.30
4429;DHT22;2227;47.810;8.810;2023-06-26T15:58:57;32.70;72.90
4429;DHT22;2227;47.810;8.810;2023-06-26T16:01:24;32.70;72.90
4429;DHT22;2227;47.810;8.810;2023-06-26T16:03:52;32.60;72.70
4429;DHT22;2227;47.810;8.810;2023-06-26T16:06:19;32.60;72.20
4429;DHT22;2227;47.810;8.810;2023-06-26T16:08:46;32.50;72.10
4429;DHT22;2227;47.810;8.810;2023-06-26T16:11:15;32.50;72.60
4429;DHT22;2227;47.810;8.810;2023-06-26T16:13:42;32.40;72.70
4429;DHT22;2227;47.810;8.810;2023-06-26T16:16:10;32.40;73.20
4429;DHT22;2227;47.810;8.810;2023-06-26T16:18:38;32.20;71.50
4429;DHT22;2227;47.810;8.810;2023-06-26T16:21:06;31.90;71.00
4429;DHT22;2227;47.810;8.810;2023-06-26T16:23:33;31.70;72.40
4429;DHT22;2227;47.810;8.810;2023-06-26T16:26:00;31.60;73.10
4429;DHT22;2227;47.810;8.810;2023-06-26T16:28:27;31.60;73.50
4429;DHT22;2227;47.810;8.810;2023-06-26T16:30:54;31.60;74.00
4429;DHT22;2227;47.810;8.810;2023-06-26T16:33:21;31.50;73.50
4429;DHT22;2227;47.810;8.810;2023-06-26T16:35:47;31.20;70.90
4429;DHT22;2227;47.810;8.810;2023-06-26T16:38:14;31.10;71.30
4429;DHT22;2227;47.810;8.810;2023-06-26T16:40:41;31.10;72.30
4429;DHT22;2227;47.810;8.810;2023-06-26T16:43:08;31.10;71.70
4429;DHT22;2227;47.810;8.810;2023-06-26T16:45:35;31.00;72.20
4429;DHT22;2227;47.810;8.810;2023-06-26T16:48:01;31.00;71.40
4429;DHT22;2227;47.810;8.810;2023-06-26T16:50:28;31.10;71.90
4429;DHT22;2227;47.810;8.810;2023-06-26T16:52:55;30.80;72.70
4429;DHT22;2227;47.810;8.810;2023-06-26T16:55:22;30.50;72.80
4429;DHT22;2227;47.810;8.810;2023-06-26T16:57:49;30.40;72.50
4429;DHT22;2227;47.810;8.810;2023-06-26T17:00:15;30.40;72.40
4429;DHT22;2227;47.810;8.810;2023-06-26T17:02:44;30.30;72.10
4429;DHT22;2227;47.810;8.810;2023-06-26T17:05:11;30.00;73.70
4429;DHT22;2227;47.810;8.810;2023-06-26T17:07:38;29.60;75.00
4429;DHT22;2227;47.810;8.810;2023-06-26T17:10:06;29.40;75.70
4429;DHT22;2227;47.810;8.810;2023-06-26T17:12:33;29.30;75.10
4429;DHT22;2227;47.810;8.810;2023-06-26T17:14:59;29.10;74.90
4429;DHT22;2227;47.810;8.810;2023-06-26T17:17:26;28.80;74.70
4429;DHT22;2227;47.810;8.810;2023-06-26T17:19:53;28.70;75.40
4429;DHT22;2227;47.810;8.810;2023-06-26T17:22:21;28.70;76.30
4429;DHT22;2227;47.810;8.810;2023-06-26T17:24:47;28.80;77.00
4429;DHT22;2227;47.810;8.810;2023-06-26T17:27:14;28.80;77.10
4429;DHT22;2227;47.810;8.810;2023-06-26T17:29:43;28.80;76.90
4429;DHT22;2227;47.810;8.810;2023-06-26T17:32:10;28.70;76.30
4429;DHT22;2227;47.810;8.810;2023-06-26T17:34:47;28.60;75.60
4429;DHT22;2227;47.810;8.810;2023-06-26T17:37:14;28.60;75.40
4429;DHT22;2227;47.810;8.810;2023-06-26T17:39:40;28.50;76.30
4429;DHT22;2227;47.810;8.810;2023-06-26T17:42:08;28.50;76.20
4429;DHT22;2227;47.810;8.810;2023-06-26T17:44:34;28.50;75.90
4429;DHT22;2227;47.810;8.810;2023-06-26T17:47:01;28.40;75.60
4429;DHT22;2227;47.810;8.810;2023-06-26T17:49:28;28.30;75.50
4429;DHT22;2227;47.810;8.810;2023-06-26T17:55:42;28.20;76.90
4429;DHT22;2227;47.810;8.810;2023-06-26T17:58:09;28.20;76.20
4429;DHT22;2227;47.810;8.810;2023-06-26T18:00:35;28.10;76.50
4429;DHT22;2227;47.810;8.810;2023-06-26T18:03:02;28.10;76.60
4429;DHT22;2227;47.810;8.810;2023-06-26T18:05:30;28.00;77.10
4429;DHT22;2227;47.810;8.810;2023-06-26T18:07:56;27.90;75.60
4429;DHT22;2227;47.810;8.810;2023-06-26T18:10:31;27.80;75.20
4429;DHT22;2227;47.810;8.810;2023-06-26T18:12:58;27.80;75.50
4429;DHT22;2227;47.810;8.810;2023-06-26T18:15:24;27.70;75.50
4429;DHT22;2227;47.810;8.810;2023-06-26T18:17:51;27.60;75.30
4429;DHT22;2227;47.810;8.810;2023-06-26T18:20:18;27.60;75.40
4429;DHT22;2227;47.810;8.810;2023-06-26T18:22:45;27.60;75.00
4429;DHT22;2227;47.810;8.810;2023-06-26T18:25:12;27.60;75.20
4429;DHT22;2227;47.810;8.810;2023-06-26T18:27:41;27.60;75.10
4429;DHT22;2227;47.810;8.810;2023-06-26T18:30:08;27.60;75.30
4429;DHT22;2227;47.810;8.810;2023-06-26T18:32:35;27.60;75.50
4429;DHT22;2227;47.810;8.810;2023-06-26T18:35:02;27.50;75.80
4429;DHT22;2227;47.810;8.810;2023-06-26T18:37:31;27.40;75.80
4429;DHT22;2227;47.810;8.810;2023-06-26T18:39:58;27.30;75.90
4429;DHT22;2227;47.810;8.810;2023-06-26T18:42:25;27.20;75.90
4429;DHT22;2227;47.810;8.810;2023-06-26T18:44:52;26.90;75.40
4429;DHT22;2227;47.810;8.810;2023-06-26T18:47:19;26.80;76.00
4429;DHT22;2227;47.810;8.810;2023-06-26T18:49:46;26.60;76.50
4429;DHT22;2227;47.810;8.810;2023-06-26T18:52:13;26.60;76.60
4429;DHT22;2227;47.810;8.810;2023-06-26T18:54:39;26.50;76.20
4429;DHT22;2227;47.810;8.810;2023-06-26T18:57:06;26.50;76.40
4429;DHT22;2227;47.810;8.810;2023-06-26T18:59:33;26.50;76.60
4429;DHT22;2227;47.810;8.810;2023-06-26T19:02:00;26.40;76.70
4429;DHT22;2227;47.810;8.810;2023-06-26T19:04:30;26.30;76.90
4429;DHT22;2227;47.810;8.810;2023-06-26T19:06:57;26.10;77.10
4429;DHT22;2227;47.810;8.810;2023-06-26T19:09:23;26.00;77.40
4429;DHT22;2227;47.810;8.810;2023-06-26T19:11:51;25.90;77.20
4429;DHT22;2227;47.810;8.810;2023-06-26T19:14:18;25.80;77.20
4429;DHT22;2227;47.810;8.810;2023-06-26T19:16:44;25.80;77.10
4429;DHT22;2227;47.810;8.810;2023-06-26T19:19:11;25.70;77.40
4429;DHT22;2227;47.810;8.810;2023-06-26T19:21:38;25.60;77.50
4429;DHT22;2227;47.810;8.810;2023-06-26T19:24:05;25.40;78.00
4429;DHT22;2227;47.810;8.810;2023-06-26T19:26:32;25.30;78.00
4429;DHT22;2227;47.810;8.810;2023-06-26T19:29:01;25.30;78.40
4429;DHT22;2227;47.810;8.810;2023-06-26T19:31:28;25.20;78.70
4429;DHT22;2227;47.810;8.810;2023-06-26T19:33:55;25.10;78.90
4429;DHT22;2227;47.810;8.810;2023-06-26T19:36:22;24.90;79.10
4429;DHT22;2227;47.810;8.810;2023-06-26T19:38:49;24.90;79.50
4429;DHT22;2227;47.810;8.810;2023-06-26T19:41:15;24.90;79.80
4429;DHT22;2227;47.810;8.810;2023-06-26T19:43:42;24.90;80.20
4429;DHT22;2227;47.810;8.810;2023-06-26T19:46:09;24.70;80.10
4429;DHT22;2227;47.810;8.810;2023-06-26T19:48:36;24.60;80.80
4429;DHT22;2227;47.810;8.810;2023-06-26T19:51:03;24.40;81.20
4429;DHT22;2227;47.810;8.810;2023-06-26T19:53:30;24.20;82.20
4429;DHT22;2227;47.810;8.810;2023-06-26T19:55:57;24.00;82.60
4429;DHT22;2227;47.810;8.810;2023-06-26T19:58:23;23.80;83.40
4429;DHT22;2227;47.810;8.810;2023-06-26T20:00:51;23.70;84.10
4429;DHT22;2227;47.810;8.810;2023-06-26T20:03:17;23.60;84.60
4429;DHT22;2227;47.810;8.810;2023-06-26T20:05:44;23.60;85.10
4429;DHT22;2227;47.810;8.810;2023-06-26T20:08:11;23.50;85.50
4429;DHT22;2227;47.810;8.810;2023-06-26T20:10:38;23.40;85.70